Frankfurt, Germany
Current Conditions -  °F | °C
As of 1:20 PM on Sunday 23 Nov 2014 (Local Time) from EDDB Reporting Station
Clear Clear  
Wind Chill:   Ceiling: Unl
Heat Index:   Visibility: 6mi
Dew Point:   Wind: 12mph
Humidity: 71%   Direction: 120°ESE
Pressure: 30.24"   Gusts: NA
Location:  52.34°N, 14.55°E
Report Text: EDDB 231220Z 12010KT CAVOK 08/03 Q1024 NOSIG
Loading
Personal Weather Stations






























Interactive Weather Map New forecast layout! Learn more

10-Day Weather Forecast

Advertisements
Track Severe Weather on mobile